createdAt,value
2023-03-15T00:00:02.772Z,5.63
2023-03-15T00:00:23.854Z,5.63
2023-03-15T00:00:44.889Z,5.63
2023-03-15T00:01:06.030Z,5.62
2023-03-15T00:01:27.085Z,5.61
2023-03-15T00:01:48.108Z,5.61
2023-03-15T00:02:09.224Z,5.61
2023-03-15T00:02:30.285Z,5.61
2023-03-15T00:02:51.381Z,5.60
2023-03-15T00:03:12.441Z,5.59
2023-03-15T00:03:33.574Z,5.59
2023-03-15T00:03:54.815Z,5.59
2023-03-15T00:04:15.930Z,5.58
2023-03-15T00:04:37.010Z,5.58
2023-03-15T00:04:58.075Z,5.58
2023-03-15T00:05:19.150Z,5.58
2023-03-15T00:05:40.260Z,5.57
2023-03-15T00:06:01.302Z,5.57
2023-03-15T00:06:22.401Z,5.57
2023-03-15T00:06:43.548Z,5.56
2023-03-15T00:07:04.577Z,5.56
2023-03-15T00:07:25.637Z,5.56
2023-03-15T00:07:46.811Z,5.55
2023-03-15T00:08:07.862Z,5.55
2023-03-15T00:08:28.996Z,5.55
2023-03-15T00:08:50.048Z,5.53
2023-03-15T00:09:11.090Z,5.53
2023-03-15T00:09:32.141Z,5.53
2023-03-15T00:09:53.208Z,5.52
2023-03-15T00:10:14.284Z,5.53
2023-03-15T00:10:35.335Z,5.52
2023-03-15T00:10:56.385Z,5.52
2023-03-15T00:11:17.471Z,5.52
2023-03-15T00:11:38.521Z,5.50
2023-03-15T00:11:59.561Z,5.50
2023-03-15T00:12:20.645Z,5.50
2023-03-15T00:12:41.679Z,5.49
2023-03-15T00:13:02.736Z,5.48
2023-03-15T00:13:23.817Z,5.48
2023-03-15T00:13:44.888Z,5.47
2023-03-15T00:14:05.974Z,5.47
2023-03-15T00:14:27.011Z,5.47
2023-03-15T00:14:48.055Z,5.46
2023-03-15T00:15:09.135Z,5.46
2023-03-15T00:15:30.315Z,5.45
2023-03-15T00:15:51.438Z,5.45
2023-03-15T00:16:12.516Z,5.44
2023-03-15T00:16:33.619Z,5.44
2023-03-15T00:16:54.757Z,5.43
2023-03-15T00:17:15.794Z,5.43
2023-03-15T00:17:36.867Z,5.42
2023-03-15T00:17:57.949Z,5.42
2023-03-15T00:18:18.993Z,5.42
2023-03-15T00:18:40.079Z,5.42
2023-03-15T00:19:01.144Z,5.40
2023-03-15T00:19:22.187Z,5.40
2023-03-15T00:19:43.256Z,5.40
2023-03-15T00:20:04.419Z,5.39
2023-03-15T00:20:25.448Z,5.39
2023-03-15T00:20:46.489Z,5.39
2023-03-15T00:21:07.555Z,5.38
2023-03-15T00:21:28.623Z,5.37
2023-03-15T00:21:49.697Z,5.37
2023-03-15T00:22:10.776Z,5.37
2023-03-15T00:22:31.806Z,5.36
2023-03-15T00:22:52.879Z,5.36
2023-03-15T00:23:13.946Z,5.36
2023-03-15T00:23:34.998Z,5.35
2023-03-15T00:23:56.226Z,5.34
2023-03-15T00:24:17.258Z,5.34
2023-03-15T00:24:38.305Z,5.33
2023-03-15T00:24:59.367Z,5.33
2023-03-15T00:25:20.436Z,5.32
2023-03-15T00:25:41.524Z,5.32
2023-03-15T00:26:02.622Z,5.32
2023-03-15T00:26:23.682Z,5.32
2023-03-15T00:26:44.780Z,5.31
2023-03-15T00:27:05.841Z,5.31
2023-03-15T00:27:26.941Z,5.29
2023-03-15T00:27:47.990Z,5.30
2023-03-15T00:28:09.086Z,5.29
2023-03-15T00:28:30.116Z,5.28
2023-03-15T00:28:51.176Z,5.28
2023-03-15T00:29:12.263Z,5.28
2023-03-15T00:29:33.341Z,5.27
2023-03-15T00:29:54.383Z,5.27
2023-03-15T00:30:15.445Z,5.26
2023-03-15T00:30:36.522Z,5.26
2023-03-15T00:30:57.621Z,5.24
2023-03-15T00:31:18.662Z,5.24
2023-03-15T00:31:39.739Z,5.24
2023-03-15T00:32:00.808Z,5.24
2023-03-15T00:32:21.906Z,5.23
2023-03-15T00:32:43.003Z,5.22
2023-03-15T00:33:04.042Z,5.22
2023-03-15T00:33:25.084Z,5.21
2023-03-15T00:33:46.141Z,5.21
2023-03-15T00:34:07.219Z,5.21
2023-03-15T00:34:28.295Z,5.20
2023-03-15T00:34:49.404Z,5.20
2023-03-15T00:35:10.445Z,5.20
2023-03-15T00:35:31.625Z,5.19
2023-03-15T00:35:52.690Z,5.19
2023-03-15T00:36:13.773Z,5.18
2023-03-15T00:36:34.838Z,5.18
2023-03-15T00:36:55.890Z,5.18
2023-03-15T00:37:16.952Z,5.17
2023-03-15T00:37:38.022Z,5.17
2023-03-15T00:37:59.094Z,5.16
2023-03-15T00:38:20.144Z,5.16
2023-03-15T00:38:41.209Z,5.15
2023-03-15T00:39:02.258Z,5.14
2023-03-15T00:39:23.327Z,5.14
2023-03-15T00:39:44.626Z,5.13
2023-03-15T00:40:05.651Z,5.13
2023-03-15T00:40:26.704Z,5.12
2023-03-15T00:40:47.784Z,5.12
2023-03-15T00:41:08.816Z,5.11
2023-03-15T00:41:29.882Z,5.11
2023-03-15T00:41:50.956Z,5.10
2023-03-15T00:42:12.075Z,5.10
2023-03-15T00:42:33.139Z,5.09
2023-03-15T00:42:54.189Z,5.08
2023-03-15T00:43:15.256Z,5.08
2023-03-15T00:43:36.325Z,5.07
2023-03-15T00:43:57.372Z,5.06
2023-03-15T00:44:18.432Z,5.07
2023-03-15T00:44:39.532Z,5.06
2023-03-15T00:45:00.758Z,5.06
2023-03-15T00:45:21.855Z,5.05
2023-03-15T00:45:42.894Z,5.04
2023-03-15T00:46:04.035Z,5.05
2023-03-15T00:46:25.134Z,5.03
2023-03-15T00:46:46.253Z,5.03
2023-03-15T00:47:07.297Z,5.03
2023-03-15T00:47:28.369Z,5.03
2023-03-15T00:47:49.413Z,5.03
2023-03-15T00:48:10.519Z,5.02
2023-03-15T00:48:31.554Z,5.02
2023-03-15T00:48:52.630Z,5.01
2023-03-15T00:49:13.698Z,5.01
2023-03-15T00:49:34.745Z,5.00
2023-03-15T00:49:55.808Z,5.00
2023-03-15T00:50:16.879Z,5.00
2023-03-15T00:50:37.958Z,4.99
2023-03-15T00:50:59.040Z,4.98
2023-03-15T00:51:20.088Z,4.99
2023-03-15T00:51:41.146Z,4.98
2023-03-15T00:52:02.200Z,4.98
2023-03-15T00:52:23.446Z,4.97
2023-03-15T00:52:44.509Z,4.97
2023-03-15T00:53:05.564Z,4.96
2023-03-15T00:53:26.648Z,4.97
2023-03-15T00:53:47.680Z,4.96
2023-03-15T00:54:08.755Z,4.95
2023-03-15T00:54:29.850Z,4.94
2023-03-15T00:54:50.887Z,4.95
2023-03-15T00:55:11.967Z,4.94
2023-03-15T00:55:33.124Z,4.93
2023-03-15T00:55:54.181Z,4.94
2023-03-15T00:56:15.278Z,4.93
2023-03-15T00:56:36.323Z,4.92
2023-03-15T00:56:57.386Z,4.92
2023-03-15T00:57:18.467Z,4.91
2023-03-15T00:57:39.554Z,4.91
2023-03-15T00:58:00.792Z,4.91
2023-03-15T00:58:23.508Z,4.90
2023-03-15T00:58:45.606Z,4.89
2023-03-15T00:59:06.656Z,4.88
2023-03-15T00:59:27.818Z,4.88
2023-03-15T00:59:48.882Z,4.88
2023-03-15T01:00:10.055Z,4.87
2023-03-15T01:00:31.100Z,4.88
2023-03-15T01:00:52.193Z,4.86
2023-03-15T01:01:13.273Z,4.86
2023-03-15T01:01:34.398Z,4.86
2023-03-15T01:01:55.518Z,4.85
2023-03-15T01:02:16.561Z,4.84
2023-03-15T01:02:37.697Z,4.83
2023-03-15T01:02:58.989Z,4.83
2023-03-15T01:03:20.040Z,4.83
2023-03-15T01:03:41.127Z,4.82
2023-03-15T01:04:02.149Z,4.81
2023-03-15T01:04:23.303Z,4.82
2023-03-15T01:04:44.351Z,4.81
2023-03-15T01:05:05.412Z,4.80
2023-03-15T01:05:26.463Z,4.79
2023-03-15T01:05:47.527Z,4.79
2023-03-15T01:06:08.611Z,4.79
2023-03-15T01:06:29.688Z,4.78
2023-03-15T01:06:50.843Z,4.78
2023-03-15T01:07:11.910Z,4.77
2023-03-15T01:07:32.928Z,4.76
2023-03-15T01:07:54.003Z,4.76
2023-03-15T01:08:15.053Z,4.75
2023-03-15T01:08:36.123Z,4.75
2023-03-15T01:08:57.476Z,4.74
2023-03-15T01:09:18.561Z,4.73
2023-03-15T01:09:39.622Z,4.73
2023-03-15T01:10:00.658Z,4.72
2023-03-15T01:10:21.738Z,4.72
2023-03-15T01:10:42.804Z,4.71
2023-03-15T01:11:03.921Z,4.70
2023-03-15T01:11:25.044Z,4.69
2023-03-15T01:11:46.070Z,4.69
2023-03-15T01:12:07.134Z,4.68
2023-03-15T01:12:28.211Z,4.67
2023-03-15T01:12:49.259Z,4.67
2023-03-15T01:13:10.313Z,4.66
2023-03-15T01:13:31.379Z,4.66
2023-03-15T01:13:52.428Z,4.65
2023-03-15T01:14:13.538Z,4.65
2023-03-15T01:14:34.624Z,4.64
2023-03-15T01:14:55.668Z,4.63
2023-03-15T01:15:16.740Z,4.63
2023-03-15T01:15:37.789Z,4.62
2023-03-15T01:15:58.881Z,4.61
2023-03-15T01:16:20.027Z,4.61
2023-03-15T01:16:41.257Z,4.60
2023-03-15T01:17:02.327Z,4.60
2023-03-15T01:17:23.360Z,4.59
2023-03-15T01:17:44.428Z,4.58
2023-03-15T01:18:05.491Z,4.59
2023-03-15T01:18:26.536Z,4.58
2023-03-15T01:18:47.614Z,4.57
2023-03-15T01:19:08.662Z,4.56
2023-03-15T01:19:29.806Z,4.57
2023-03-15T01:19:50.831Z,4.56
2023-03-15T01:20:11.898Z,4.56
2023-03-15T01:20:32.979Z,4.55
2023-03-15T01:20:54.093Z,4.56
2023-03-15T01:21:15.135Z,4.54
2023-03-15T01:21:36.195Z,4.54
2023-03-15T01:21:57.288Z,4.54
2023-03-15T01:22:18.337Z,4.54
2023-03-15T01:22:39.382Z,4.54
2023-03-15T01:23:00.465Z,4.53
2023-03-15T01:23:21.510Z,4.54
2023-03-15T01:23:42.569Z,4.53
2023-03-15T01:24:03.619Z,4.52
2023-03-15T01:24:24.676Z,4.52
2023-03-15T01:24:45.759Z,4.52
2023-03-15T01:25:06.810Z,4.52
2023-03-15T01:25:27.881Z,4.51
2023-03-15T01:25:48.920Z,4.52
2023-03-15T01:26:09.985Z,4.51
2023-03-15T01:26:31.048Z,4.50
2023-03-15T01:26:52.116Z,4.49
2023-03-15T01:27:13.181Z,4.49
2023-03-15T01:27:34.232Z,4.48
2023-03-15T01:27:55.308Z,4.47
2023-03-15T01:28:16.373Z,4.48
2023-03-15T01:28:37.552Z,4.47
2023-03-15T01:28:58.598Z,4.47
2023-03-15T01:29:19.647Z,4.46
2023-03-15T01:29:40.717Z,4.45
2023-03-15T01:30:01.779Z,4.45
2023-03-15T01:30:22.844Z,4.45
2023-03-15T01:30:43.902Z,4.44
2023-03-15T01:31:05.003Z,4.43
2023-03-15T01:31:26.132Z,4.43
2023-03-15T01:31:47.317Z,4.43
2023-03-15T01:32:08.457Z,4.43
2023-03-15T01:32:29.987Z,4.42
2023-03-15T01:32:51.056Z,4.41
2023-03-15T01:33:12.218Z,4.41
2023-03-15T01:33:33.251Z,4.41
2023-03-15T01:33:54.329Z,4.40
2023-03-15T01:34:15.393Z,4.40
2023-03-15T01:34:36.474Z,4.39
2023-03-15T01:34:57.503Z,4.39
2023-03-15T01:35:18.566Z,4.38
2023-03-15T01:35:39.679Z,4.38
2023-03-15T01:36:00.775Z,4.37
2023-03-15T01:36:21.870Z,4.37
2023-03-15T01:36:43.132Z,4.36
2023-03-15T01:37:04.184Z,4.36
2023-03-15T01:37:25.270Z,4.35
2023-03-15T01:37:46.333Z,4.34
2023-03-15T01:38:07.390Z,4.33
2023-03-15T01:38:28.443Z,4.33
2023-03-15T01:38:49.702Z,4.32
2023-03-15T01:39:10.826Z,4.32
2023-03-15T01:39:31.912Z,4.31
2023-03-15T01:39:52.955Z,4.30
2023-03-15T01:40:14.102Z,4.30
2023-03-15T01:40:35.162Z,4.28
2023-03-15T01:40:56.213Z,4.29
2023-03-15T01:41:17.284Z,4.27
2023-03-15T01:41:38.380Z,4.26
2023-03-15T01:41:59.434Z,4.26
2023-03-15T01:42:20.497Z,4.25
2023-03-15T01:42:41.545Z,4.24
2023-03-15T01:43:02.644Z,4.23
2023-03-15T01:43:23.741Z,4.23
2023-03-15T01:43:44.786Z,4.22
2023-03-15T01:44:05.870Z,4.22
2023-03-15T01:44:26.901Z,4.21
2023-03-15T01:44:47.960Z,4.20
2023-03-15T01:45:09.037Z,4.20
2023-03-15T01:45:30.137Z,4.18
2023-03-15T01:45:51.176Z,4.18
2023-03-15T01:46:12.238Z,4.17
2023-03-15T01:46:33.324Z,4.17
2023-03-15T01:46:54.425Z,4.15
2023-03-15T01:47:15.549Z,4.14
2023-03-15T01:47:36.598Z,4.14
2023-03-15T01:47:57.677Z,4.12
2023-03-15T01:48:18.753Z,4.12
2023-03-15T01:48:39.837Z,4.11
2023-03-15T01:49:00.904Z,4.10
2023-03-15T01:49:22.092Z,4.10
2023-03-15T01:49:43.164Z,4.09
2023-03-15T01:50:04.239Z,4.07
2023-03-15T01:50:25.331Z,4.07
2023-03-15T01:50:46.361Z,4.07
2023-03-15T01:51:07.412Z,4.05
2023-03-15T01:51:28.497Z,4.05
2023-03-15T01:51:49.531Z,4.04
2023-03-15T01:52:10.613Z,4.03
2023-03-15T01:52:31.693Z,4.03
2023-03-15T01:52:52.767Z,4.02
2023-03-15T01:53:13.810Z,4.01
2023-03-15T01:53:34.884Z,4.01
2023-03-15T01:53:55.948Z,4.00
2023-03-15T01:54:17.005Z,4.00
2023-03-15T01:54:38.046Z,3.99
2023-03-15T01:54:59.115Z,3.99
2023-03-15T01:55:20.179Z,3.97
2023-03-15T01:55:41.229Z,3.97
2023-03-15T01:56:02.307Z,3.97
2023-03-15T01:56:23.356Z,3.96
2023-03-15T01:56:44.413Z,3.95
2023-03-15T01:57:05.488Z,3.94
2023-03-15T01:57:26.548Z,3.93
2023-03-15T01:57:47.609Z,3.93
2023-03-15T01:58:08.667Z,3.92
2023-03-15T01:58:29.744Z,3.92
2023-03-15T01:58:50.825Z,3.92
2023-03-15T01:59:11.904Z,3.90
2023-03-15T01:59:32.959Z,3.90
2023-03-15T01:59:54.014Z,3.89
2023-03-15T02:00:15.074Z,3.89
2023-03-15T02:00:36.223Z,3.89
2023-03-15T02:00:57.296Z,3.88
2023-03-15T02:01:18.349Z,3.89
2023-03-15T02:01:39.401Z,3.88
2023-03-15T02:02:00.569Z,3.87
2023-03-15T02:02:21.692Z,3.87
2023-03-15T02:02:42.756Z,3.87
2023-03-15T02:03:03.796Z,3.86
2023-03-15T02:03:24.853Z,3.85
2023-03-15T02:03:45.973Z,3.85
2023-03-15T02:04:07.167Z,3.84
2023-03-15T02:04:28.233Z,3.83
2023-03-15T02:04:49.371Z,3.83
2023-03-15T02:05:10.401Z,3.82
2023-03-15T02:05:31.474Z,3.82
2023-03-15T02:05:52.528Z,3.81
2023-03-15T02:06:13.654Z,3.82
2023-03-15T02:06:34.720Z,3.81
2023-03-15T02:06:55.826Z,3.80
2023-03-15T02:07:16.861Z,3.80
2023-03-15T02:07:37.947Z,3.80
2023-03-15T02:07:58.985Z,3.79
2023-03-15T02:08:20.060Z,3.79
2023-03-15T02:08:41.143Z,3.78
2023-03-15T02:09:02.220Z,3.78
2023-03-15T02:09:23.293Z,3.78
2023-03-15T02:09:44.353Z,3.78
2023-03-15T02:10:05.411Z,3.77
2023-03-15T02:10:26.484Z,3.77
2023-03-15T02:10:47.580Z,3.77
2023-03-15T02:11:08.655Z,3.76
2023-03-15T02:11:29.730Z,3.76
2023-03-15T02:11:50.849Z,3.75
2023-03-15T02:12:11.892Z,3.76
2023-03-15T02:12:32.953Z,3.75
2023-03-15T02:12:54.032Z,3.75
2023-03-15T02:13:15.071Z,3.74
2023-03-15T02:13:36.140Z,3.74
2023-03-15T02:13:57.185Z,3.74
2023-03-15T02:14:18.274Z,3.73
2023-03-15T02:14:39.382Z,3.74
2023-03-15T02:15:00.443Z,3.73
2023-03-15T02:15:21.502Z,3.72
2023-03-15T02:15:42.576Z,3.72
2023-03-15T02:16:03.704Z,3.71
2023-03-15T02:16:24.789Z,3.70
2023-03-15T02:16:45.978Z,3.70
2023-03-15T02:17:07.050Z,3.70
2023-03-15T02:17:28.165Z,3.69
2023-03-15T02:17:49.236Z,3.69
2023-03-15T02:18:10.303Z,3.68
2023-03-15T02:18:31.375Z,3.68
2023-03-15T02:18:52.411Z,3.67
2023-03-15T02:19:13.473Z,3.66
2023-03-15T02:19:34.534Z,3.66
2023-03-15T02:19:55.647Z,3.65
2023-03-15T02:20:16.711Z,3.64
2023-03-15T02:20:37.752Z,3.64
2023-03-15T02:20:58.824Z,3.63
2023-03-15T02:21:19.892Z,3.62
2023-03-15T02:21:40.938Z,3.62
2023-03-15T02:22:02.009Z,3.61
2023-03-15T02:22:23.059Z,3.61
2023-03-15T02:22:44.133Z,3.60
2023-03-15T02:23:05.191Z,3.59
2023-03-15T02:23:26.267Z,3.58
2023-03-15T02:23:47.303Z,3.58
2023-03-15T02:24:08.393Z,3.57
2023-03-15T02:24:29.451Z,3.56
2023-03-15T02:24:50.488Z,3.56
2023-03-15T02:25:11.565Z,3.55
2023-03-15T02:25:32.660Z,3.55
2023-03-15T02:25:53.735Z,3.54
2023-03-15T02:26:14.808Z,3.53
2023-03-15T02:26:35.856Z,3.53
2023-03-15T02:26:57.038Z,3.52
2023-03-15T02:27:18.107Z,3.52
2023-03-15T02:27:39.152Z,3.51
2023-03-15T02:28:00.208Z,3.50
2023-03-15T02:28:21.284Z,3.49
2023-03-15T02:28:42.335Z,3.48
2023-03-15T02:29:03.382Z,3.47
2023-03-15T02:29:24.439Z,3.47
2023-03-15T02:29:45.504Z,3.47
2023-03-15T02:30:06.564Z,3.46
2023-03-15T02:30:27.652Z,3.46
2023-03-15T02:30:48.739Z,3.45
2023-03-15T02:31:09.780Z,3.44
2023-03-15T02:31:30.869Z,3.44
2023-03-15T02:31:52.043Z,3.43
2023-03-15T02:32:13.101Z,3.44
2023-03-15T02:32:34.148Z,3.42
2023-03-15T02:32:55.283Z,3.41
2023-03-15T02:33:16.342Z,3.42
2023-03-15T02:33:37.409Z,3.41
2023-03-15T02:33:58.489Z,3.40
2023-03-15T02:34:19.549Z,3.39
2023-03-15T02:34:40.602Z,3.39
2023-03-15T02:35:01.677Z,3.38
2023-03-15T02:35:22.736Z,3.38
2023-03-15T02:35:43.843Z,3.36
2023-03-15T02:36:04.935Z,3.36
2023-03-15T02:36:25.991Z,3.35
2023-03-15T02:36:47.053Z,3.35
2023-03-15T02:37:08.110Z,3.35
2023-03-15T02:37:29.207Z,3.33
2023-03-15T02:37:50.270Z,3.33
2023-03-15T02:38:11.316Z,3.32
2023-03-15T02:38:32.344Z,3.31
2023-03-15T02:38:53.420Z,3.31
2023-03-15T02:39:14.477Z,3.29
2023-03-15T02:39:35.537Z,3.29
2023-03-15T02:39:56.613Z,3.29
2023-03-15T02:40:17.709Z,3.28
2023-03-15T02:40:38.792Z,3.27
2023-03-15T02:40:59.901Z,3.27
2023-03-15T02:41:20.937Z,3.26
2023-03-15T02:41:41.995Z,3.26
2023-03-15T02:42:03.065Z,3.25
2023-03-15T02:42:24.161Z,3.24
2023-03-15T02:42:45.184Z,3.24
2023-03-15T02:43:06.255Z,3.24
2023-03-15T02:43:27.351Z,3.23
2023-03-15T02:43:48.378Z,3.22
2023-03-15T02:44:09.428Z,3.21
2023-03-15T02:44:30.490Z,3.21
2023-03-15T02:44:51.548Z,3.20
2023-03-15T02:45:12.610Z,3.20
2023-03-15T02:45:33.808Z,3.18
2023-03-15T02:45:54.885Z,3.17
2023-03-15T02:46:16.105Z,3.18
2023-03-15T02:46:37.184Z,3.16
2023-03-15T02:46:58.275Z,3.16
2023-03-15T02:47:19.316Z,3.16
2023-03-15T02:47:40.367Z,3.15
2023-03-15T02:48:01.463Z,3.15
2023-03-15T02:48:22.549Z,3.14
2023-03-15T02:48:43.630Z,3.14
2023-03-15T02:49:04.755Z,3.13
2023-03-15T02:49:25.809Z,3.12
2023-03-15T02:49:47.018Z,3.12
2023-03-15T02:50:08.082Z,3.12
2023-03-15T02:50:29.112Z,3.11
2023-03-15T02:50:50.179Z,3.10
2023-03-15T02:51:11.235Z,3.09
2023-03-15T02:51:32.355Z,3.09
2023-03-15T02:51:53.421Z,3.08
2023-03-15T02:52:14.505Z,3.08
2023-03-15T02:52:35.555Z,3.07
2023-03-15T02:52:56.616Z,3.07
2023-03-15T02:53:17.731Z,3.07
2023-03-15T02:53:38.772Z,3.06
2023-03-15T02:53:59.831Z,3.05
2023-03-15T02:54:20.908Z,3.06
2023-03-15T02:54:41.973Z,3.04
2023-03-15T02:55:03.023Z,3.05
2023-03-15T02:55:24.088Z,3.03
2023-03-15T02:55:45.163Z,3.03
2023-03-15T02:56:06.213Z,3.03
2023-03-15T02:56:27.262Z,3.03
2023-03-15T02:56:48.589Z,3.03
2023-03-15T02:57:09.685Z,3.01
2023-03-15T02:57:30.774Z,3.01
2023-03-15T02:57:51.813Z,3.00
2023-03-15T02:58:12.881Z,3.00
2023-03-15T02:58:33.951Z,3.00
2023-03-15T02:58:54.994Z,2.99
2023-03-15T02:59:16.061Z,2.98
2023-03-15T02:59:37.125Z,2.98
2023-03-15T02:59:58.194Z,2.97
2023-03-15T03:00:19.270Z,2.97
2023-03-15T03:00:40.313Z,2.97
2023-03-15T03:01:01.426Z,2.96
2023-03-15T03:01:22.578Z,2.95
2023-03-15T03:01:43.598Z,2.95
2023-03-15T03:02:04.723Z,2.96
2023-03-15T03:02:25.784Z,2.94
2023-03-15T03:02:46.857Z,2.94
2023-03-15T03:03:07.917Z,2.94
2023-03-15T03:03:28.995Z,2.94
2023-03-15T03:03:50.048Z,2.93
2023-03-15T03:04:11.096Z,2.92
2023-03-15T03:04:32.155Z,2.91
2023-03-15T03:04:53.215Z,2.91
2023-03-15T03:05:14.281Z,2.91
2023-03-15T03:05:35.357Z,2.90
2023-03-15T03:05:56.397Z,2.90
2023-03-15T03:06:17.473Z,2.89
2023-03-15T03:06:38.544Z,2.89
2023-03-15T03:06:59.637Z,2.88
2023-03-15T03:07:20.729Z,2.88
2023-03-15T03:07:41.790Z,2.88
2023-03-15T03:08:02.863Z,2.87
2023-03-15T03:08:23.912Z,2.87
2023-03-15T03:08:44.964Z,2.85
2023-03-15T03:09:06.037Z,2.85
2023-03-15T03:09:27.104Z,2.84
2023-03-15T03:09:48.172Z,2.84
2023-03-15T03:10:09.241Z,2.84
2023-03-15T03:10:30.312Z,2.83
2023-03-15T03:10:51.374Z,2.82
2023-03-15T03:11:12.473Z,2.82
2023-03-15T03:11:33.536Z,2.82
2023-03-15T03:11:54.602Z,2.82
2023-03-15T03:12:15.694Z,2.81
2023-03-15T03:12:36.882Z,2.81
2023-03-15T03:12:57.933Z,2.80
2023-03-15T03:13:19.004Z,2.80
2023-03-15T03:13:40.052Z,2.80
2023-03-15T03:14:01.094Z,2.80
2023-03-15T03:14:22.158Z,2.79
2023-03-15T03:14:43.260Z,2.79
2023-03-15T03:15:04.347Z,2.79
2023-03-15T03:15:25.456Z,2.79
2023-03-15T03:15:46.487Z,2.78
2023-03-15T03:16:07.544Z,2.78
2023-03-15T03:16:28.654Z,2.78
2023-03-15T03:16:49.751Z,2.78
2023-03-15T03:17:10.803Z,2.78
2023-03-15T03:17:31.828Z,2.78
2023-03-15T03:17:52.924Z,2.77
2023-03-15T03:18:13.990Z,2.77
2023-03-15T03:18:35.024Z,2.77
2023-03-15T03:18:56.068Z,2.77
2023-03-15T03:19:17.126Z,2.76
2023-03-15T03:19:38.202Z,2.77
2023-03-15T03:19:59.239Z,2.77
2023-03-15T03:20:20.320Z,2.77
2023-03-15T03:20:41.355Z,2.77
2023-03-15T03:21:02.469Z,2.75
2023-03-15T03:21:23.521Z,2.76
2023-03-15T03:21:44.542Z,2.75
2023-03-15T03:22:05.610Z,2.75
2023-03-15T03:22:26.699Z,2.76
2023-03-15T03:22:47.747Z,2.75
2023-03-15T03:23:08.837Z,2.75
2023-03-15T03:23:29.876Z,2.75
2023-03-15T03:23:50.933Z,2.75
2023-03-15T03:24:12.006Z,2.75
2023-03-15T03:24:33.090Z,2.75
2023-03-15T03:24:54.157Z,2.75
2023-03-15T03:25:15.186Z,2.75
2023-03-15T03:25:36.272Z,2.74
2023-03-15T03:25:57.335Z,2.74
2023-03-15T03:26:18.381Z,2.74
2023-03-15T03:26:39.443Z,2.74
2023-03-15T03:27:00.511Z,2.74
2023-03-15T03:27:21.574Z,2.74
2023-03-15T03:27:42.660Z,2.73
2023-03-15T03:28:03.752Z,2.74
2023-03-15T03:28:24.859Z,2.74
2023-03-15T03:28:45.910Z,2.73
2023-03-15T03:29:06.969Z,2.73
2023-03-15T03:29:28.035Z,2.73
2023-03-15T03:29:49.105Z,2.73
2023-03-15T03:30:10.199Z,2.73
2023-03-15T03:30:31.350Z,2.73
2023-03-15T03:30:52.483Z,2.72
2023-03-15T03:31:13.607Z,2.73
2023-03-15T03:31:34.640Z,2.73
2023-03-15T03:31:55.726Z,2.72
2023-03-15T03:32:16.787Z,2.73
2023-03-15T03:32:37.897Z,2.73
2023-03-15T03:32:59.031Z,2.73
2023-03-15T03:33:20.074Z,2.72
2023-03-15T03:33:41.253Z,2.73
2023-03-15T03:34:02.323Z,2.73
2023-03-15T03:34:23.388Z,2.73
2023-03-15T03:34:44.449Z,2.72
2023-03-15T03:35:05.526Z,2.72
2023-03-15T03:35:26.587Z,2.72
2023-03-15T03:35:47.720Z,2.72
2023-03-15T03:36:08.847Z,2.72
2023-03-15T03:36:29.869Z,2.72
2023-03-15T03:36:50.963Z,2.72
2023-03-15T03:37:11.992Z,2.72
2023-03-15T03:37:33.072Z,2.71
2023-03-15T03:37:54.133Z,2.71
2023-03-15T03:38:15.195Z,2.71
2023-03-15T03:38:36.296Z,2.72
2023-03-15T03:38:57.346Z,2.72
2023-03-15T03:39:18.436Z,2.70
2023-03-15T03:39:39.491Z,2.71
2023-03-15T03:40:00.573Z,2.71
2023-03-15T03:40:21.612Z,2.71
2023-03-15T03:40:42.833Z,2.71
2023-03-15T03:41:03.889Z,2.71
2023-03-15T03:41:24.930Z,2.70
2023-03-15T03:41:46.013Z,2.71
2023-03-15T03:42:07.062Z,2.71
2023-03-15T03:42:28.105Z,2.71
2023-03-15T03:42:49.164Z,2.70
2023-03-15T03:43:10.246Z,2.71
2023-03-15T03:43:31.282Z,2.71
2023-03-15T03:43:52.335Z,2.70
2023-03-15T03:44:13.465Z,2.70
2023-03-15T03:44:34.513Z,2.70
2023-03-15T03:44:55.568Z,2.70
2023-03-15T03:45:16.647Z,2.70
2023-03-15T03:45:37.690Z,2.69
2023-03-15T03:45:58.822Z,2.69
2023-03-15T03:46:19.942Z,2.69
2023-03-15T03:46:41.010Z,2.69
2023-03-15T03:47:02.092Z,2.70
2023-03-15T03:47:23.149Z,2.69
2023-03-15T03:47:44.226Z,2.69
2023-03-15T03:48:05.273Z,2.69
2023-03-15T03:48:26.363Z,2.69
2023-03-15T03:48:47.398Z,2.69
2023-03-15T03:49:08.474Z,2.68
2023-03-15T03:49:29.538Z,2.68
2023-03-15T03:49:50.594Z,2.68
2023-03-15T03:50:11.702Z,2.69
2023-03-15T03:50:32.754Z,2.69
2023-03-15T03:50:53.803Z,2.68
2023-03-15T03:51:14.865Z,2.68
2023-03-15T03:51:35.919Z,2.68
2023-03-15T03:51:56.980Z,2.68
2023-03-15T03:52:18.037Z,2.67
2023-03-15T03:52:39.109Z,2.68
2023-03-15T03:53:00.167Z,2.68
2023-03-15T03:53:21.305Z,2.68
2023-03-15T03:53:42.332Z,2.67
2023-03-15T03:54:03.408Z,2.67
2023-03-15T03:54:24.467Z,2.67
2023-03-15T03:54:45.617Z,2.67
2023-03-15T03:55:06.714Z,2.67
2023-03-15T03:55:27.794Z,2.67
2023-03-15T03:55:48.882Z,2.68
2023-03-15T03:56:09.935Z,2.67
2023-03-15T03:56:30.969Z,2.67
2023-03-15T03:56:52.048Z,2.67
2023-03-15T03:57:13.117Z,2.67
2023-03-15T03:57:34.171Z,2.68
2023-03-15T03:57:55.271Z,2.68
2023-03-15T03:58:16.306Z,2.67
2023-03-15T03:58:37.366Z,2.67
2023-03-15T03:58:58.420Z,2.68
2023-03-15T03:59:19.484Z,2.67
2023-03-15T03:59:40.544Z,2.68
2023-03-15T04:00:01.653Z,2.67
2023-03-15T04:00:22.692Z,2.68
2023-03-15T04:00:43.758Z,2.68
2023-03-15T04:01:04.822Z,2.67
2023-03-15T04:01:25.864Z,2.68
2023-03-15T04:01:47.152Z,2.68
2023-03-15T04:02:08.404Z,2.68
2023-03-15T04:02:29.557Z,2.68
2023-03-15T04:02:50.648Z,2.68
2023-03-15T04:03:11.694Z,2.68
2023-03-15T04:03:32.760Z,2.68
2023-03-15T04:03:53.863Z,2.68
2023-03-15T04:04:15.000Z,2.69
2023-03-15T04:04:36.154Z,2.69
2023-03-15T04:04:57.306Z,2.68
2023-03-15T04:05:18.344Z,2.68
2023-03-15T04:05:39.439Z,2.69
2023-03-15T04:06:00.497Z,2.70
2023-03-15T04:06:21.566Z,2.69
2023-03-15T04:06:42.633Z,2.69
2023-03-15T04:07:03.708Z,2.69
2023-03-15T04:07:24.756Z,2.69
2023-03-15T04:07:45.797Z,2.69
2023-03-15T04:08:06.883Z,2.70
2023-03-15T04:08:27.943Z,2.70
2023-03-15T04:08:49.001Z,2.70
2023-03-15T04:09:10.070Z,2.70
2023-03-15T04:09:31.125Z,2.70
2023-03-15T04:09:52.197Z,2.71
2023-03-15T04:10:13.264Z,2.71
2023-03-15T04:10:34.329Z,2.71
2023-03-15T04:10:55.400Z,2.70
2023-03-15T04:11:16.438Z,2.71
2023-03-15T04:11:37.493Z,2.71
2023-03-15T04:11:58.595Z,2.71
2023-03-15T04:12:19.681Z,2.71
2023-03-15T04:12:40.809Z,2.72
2023-03-15T04:13:01.852Z,2.72
2023-03-15T04:13:22.921Z,2.72
2023-03-15T04:13:43.954Z,2.72
2023-03-15T04:14:05.030Z,2.72
2023-03-15T04:14:26.098Z,2.72
2023-03-15T04:14:47.182Z,2.72
2023-03-15T04:15:08.245Z,2.72
2023-03-15T04:15:29.321Z,2.72
2023-03-15T04:15:50.613Z,2.73
2023-03-15T04:16:11.818Z,2.72
2023-03-15T04:16:32.865Z,2.72
2023-03-15T04:16:53.949Z,2.72
2023-03-15T04:17:15.025Z,2.72
2023-03-15T04:17:36.078Z,2.73
2023-03-15T04:17:57.176Z,2.72
2023-03-15T04:18:18.222Z,2.72
2023-03-15T04:18:39.269Z,2.73
2023-03-15T04:19:00.334Z,2.72
2023-03-15T04:19:21.391Z,2.73
2023-03-15T04:19:42.464Z,2.72
2023-03-15T04:20:03.540Z,2.73
2023-03-15T04:20:24.598Z,2.73
2023-03-15T04:20:45.682Z,2.73
2023-03-15T04:21:06.737Z,2.73
2023-03-15T04:21:27.928Z,2.73
2023-03-15T04:21:48.982Z,2.73
2023-03-15T04:22:10.070Z,2.75
2023-03-15T04:22:31.160Z,2.74
2023-03-15T04:22:52.207Z,2.74
2023-03-15T04:23:13.279Z,2.74
2023-03-15T04:23:34.339Z,2.75
2023-03-15T04:23:55.396Z,2.74
2023-03-15T04:24:16.467Z,2.75
2023-03-15T04:24:37.521Z,2.74
2023-03-15T04:24:58.570Z,2.74
2023-03-15T04:25:19.641Z,2.74
2023-03-15T04:25:40.704Z,2.75
2023-03-15T04:26:01.759Z,2.74
2023-03-15T04:26:22.975Z,2.75
2023-03-15T04:26:44.020Z,2.74
2023-03-15T04:27:05.095Z,2.74
2023-03-15T04:27:26.130Z,2.74
2023-03-15T04:27:47.235Z,2.74
2023-03-15T04:28:08.299Z,2.74
2023-03-15T04:28:29.350Z,2.74
2023-03-15T04:28:50.422Z,2.75
2023-03-15T04:29:11.459Z,2.75
2023-03-15T04:29:32.545Z,2.73
2023-03-15T04:29:53.594Z,2.75
2023-03-15T04:30:14.676Z,2.75
2023-03-15T04:30:35.742Z,2.74
2023-03-15T04:30:56.840Z,2.73
2023-03-15T04:31:17.942Z,2.74
2023-03-15T04:31:39.110Z,2.74
2023-03-15T04:32:00.156Z,2.73
2023-03-15T04:32:21.248Z,2.73
2023-03-15T04:32:42.315Z,2.75
2023-03-15T04:33:03.358Z,2.74
2023-03-15T04:33:24.418Z,2.74
2023-03-15T04:33:45.531Z,2.74
2023-03-15T04:34:06.632Z,2.74
2023-03-15T04:34:27.681Z,2.73
2023-03-15T04:34:48.755Z,2.74
2023-03-15T04:35:09.836Z,2.74
2023-03-15T04:35:30.878Z,2.74
2023-03-15T04:35:52.084Z,2.75
2023-03-15T04:36:13.158Z,2.73
2023-03-15T04:36:34.212Z,2.73
2023-03-15T04:36:55.429Z,2.74
2023-03-15T04:37:16.477Z,2.74
2023-03-15T04:37:37.538Z,2.73
2023-03-15T04:37:58.692Z,2.74
2023-03-15T04:38:19.733Z,2.74
2023-03-15T04:38:40.805Z,2.74
2023-03-15T04:39:01.845Z,2.73
2023-03-15T04:39:22.901Z,2.74
2023-03-15T04:39:43.965Z,2.72
2023-03-15T04:40:05.035Z,2.74
2023-03-15T04:40:26.101Z,2.73